Terminal Aerodrome Forecast
Issued by NWS

Home | Current Version | Previous Version | Text Only | Print | Product List | Glossary On
Versions: 1 2 3 4 5 6 7 8 9 10 11 12 13 14 15 16 17
000
FTUS42 TJSJ 212300
TAFIST
TAF
TIST 212329Z 2200/2224 06012G23KT P6SM VCTS SCT018CB BKN040
      TEMPO 2200/2204 04018G30KT 2SM +TSRA SCT018CB BKN030
     FM220600 07015KT P6SM VCTS SCT020CB BKN040
      TEMPO 2207/2209 05014G27KT 4SM SHRA BKN025
     FM221630 09015G30KT P6SM VCTS SCT025CB BKN050=

USA.gov is the U.S. government's official web portal to all federal, state and local government web resources and services.